sensor_id;sensor_type;location;lat;lon;timestamp;P1;durP1;ratioP1;P2;durP2;ratioP2
65073;SDS011;52218;51.224;-2.328;2022-11-20T00:02:13;4.90;;;1.60;;
65073;SDS011;52218;51.224;-2.328;2022-11-20T00:05:59;3.03;;;1.70;;
65073;SDS011;52218;51.224;-2.328;2022-11-20T00:09:42;2.72;;;1.38;;
65073;SDS011;52218;51.224;-2.328;2022-11-20T00:13:24;3.40;;;1.60;;
65073;SDS011;52218;51.224;-2.328;2022-11-20T00:17:06;5.63;;;1.60;;
65073;SDS011;52218;51.224;-2.328;2022-11-20T00:20:48;3.65;;;1.40;;
65073;SDS011;52218;51.224;-2.328;2022-11-20T00:24:30;2.83;;;1.52;;
65073;SDS011;52218;51.224;-2.328;2022-11-20T00:28:12;3.40;;;1.40;;
65073;SDS011;52218;51.224;-2.328;2022-11-20T00:31:54;2.15;;;1.40;;
65073;SDS011;52218;51.224;-2.328;2022-11-20T00:35:35;5.22;;;1.80;;
65073;SDS011;52218;51.224;-2.328;2022-11-20T00:39:17;2.88;;;1.60;;
65073;SDS011;52218;51.224;-2.328;2022-11-20T00:43:00;2.20;;;1.48;;
65073;SDS011;52218;51.224;-2.328;2022-11-20T00:46:42;4.00;;;1.50;;
65073;SDS011;52218;51.224;-2.328;2022-11-20T00:50:24;3.63;;;1.50;;
65073;SDS011;52218;51.224;-2.328;2022-11-20T00:54:08;3.97;;;1.45;;
65073;SDS011;52218;51.224;-2.328;2022-11-20T00:57:50;2.20;;;1.40;;
65073;SDS011;52218;51.224;-2.328;2022-11-20T01:01:32;3.33;;;1.60;;
65073;SDS011;52218;51.224;-2.328;2022-11-20T01:05:14;3.90;;;1.50;;
65073;SDS011;52218;51.224;-2.328;2022-11-20T01:08:57;4.68;;;1.90;;
65073;SDS011;52218;51.224;-2.328;2022-11-20T01:12:40;4.07;;;1.65;;
65073;SDS011;52218;51.224;-2.328;2022-11-20T01:16:23;3.33;;;1.55;;
65073;SDS011;52218;51.224;-2.328;2022-11-20T01:20:11;4.22;;;1.77;;
65073;SDS011;52218;51.224;-2.328;2022-11-20T01:23:53;3.05;;;1.70;;
65073;SDS011;52218;51.224;-2.328;2022-11-20T01:27:35;3.50;;;1.55;;
65073;SDS011;52218;51.224;-2.328;2022-11-20T01:31:21;3.70;;;1.52;;
65073;SDS011;52218;51.224;-2.328;2022-11-20T01:35:07;3.67;;;1.33;;
65073;SDS011;52218;51.224;-2.328;2022-11-20T01:38:51;2.83;;;1.52;;
65073;SDS011;52218;51.224;-2.328;2022-11-20T01:42:34;3.40;;;1.52;;
65073;SDS011;52218;51.224;-2.328;2022-11-20T01:46:35;3.65;;;1.40;;
65073;SDS011;52218;51.224;-2.328;2022-11-20T01:50:23;3.00;;;1.38;;
65073;SDS011;52218;51.224;-2.328;2022-11-20T01:54:21;2.33;;;1.10;;
65073;SDS011;52218;51.224;-2.328;2022-11-20T01:58:06;1.63;;;0.98;;
65073;SDS011;52218;51.224;-2.328;2022-11-20T02:01:49;1.40;;;0.73;;
65073;SDS011;52218;51.224;-2.328;2022-11-20T02:05:51;1.52;;;0.80;;
65073;SDS011;52218;51.224;-2.328;2022-11-20T02:09:35;2.53;;;0.70;;
65073;SDS011;52218;51.224;-2.328;2022-11-20T02:13:17;1.63;;;0.60;;
65073;SDS011;52218;51.224;-2.328;2022-11-20T02:17:18;1.88;;;0.65;;
65073;SDS011;52218;51.224;-2.328;2022-11-20T02:21:03;1.23;;;0.60;;
65073;SDS011;52218;51.224;-2.328;2022-11-20T02:24:55;0.75;;;0.45;;
65073;SDS011;52218;51.224;-2.328;2022-11-20T02:28:40;0.40;;;0.30;;
65073;SDS011;52218;51.224;-2.328;2022-11-20T02:32:24;0.73;;;0.30;;
65073;SDS011;52218;51.224;-2.328;2022-11-20T02:36:08;0.80;;;0.30;;
65073;SDS011;52218;51.224;-2.328;2022-11-20T02:39:55;0.68;;;0.30;;
65073;SDS011;52218;51.224;-2.328;2022-11-20T02:43:37;0.40;;;0.30;;
65073;SDS011;52218;51.224;-2.328;2022-11-20T02:47:19;1.60;;;0.57;;
65073;SDS011;52218;51.224;-2.328;2022-11-20T02:51:01;1.05;;;0.40;;
65073;SDS011;52218;51.224;-2.328;2022-11-20T02:54:43;1.38;;;0.30;;
65073;SDS011;52218;51.224;-2.328;2022-11-20T02:58:25;0.55;;;0.30;;
65073;SDS011;52218;51.224;-2.328;2022-11-20T03:02:07;0.60;;;0.30;;
65073;SDS011;52218;51.224;-2.328;2022-11-20T03:05:49;0.50;;;0.20;;
65073;SDS011;52218;51.224;-2.328;2022-11-20T03:09:31;0.40;;;0.30;;
65073;SDS011;52218;51.224;-2.328;2022-11-20T03:13:13;0.20;;;0.20;;
65073;SDS011;52218;51.224;-2.328;2022-11-20T03:16:55;0.35;;;0.22;;
65073;SDS011;52218;51.224;-2.328;2022-11-20T03:20:37;0.88;;;0.20;;
65073;SDS011;52218;51.224;-2.328;2022-11-20T03:24:19;3.15;;;0.30;;
65073;SDS011;52218;51.224;-2.328;2022-11-20T03:28:01;0.70;;;0.30;;
65073;SDS011;52218;51.224;-2.328;2022-11-20T03:31:43;0.70;;;0.30;;
65073;SDS011;52218;51.224;-2.328;2022-11-20T03:35:25;2.35;;;0.40;;
65073;SDS011;52218;51.224;-2.328;2022-11-20T03:39:07;0.40;;;0.30;;
65073;SDS011;52218;51.224;-2.328;2022-11-20T03:42:50;1.20;;;0.28;;
65073;SDS011;52218;51.224;-2.328;2022-11-20T03:46:32;0.65;;;0.30;;
65073;SDS011;52218;51.224;-2.328;2022-11-20T03:50:14;0.93;;;0.38;;
65073;SDS011;52218;51.224;-2.328;2022-11-20T03:53:57;0.88;;;0.30;;
65073;SDS011;52218;51.224;-2.328;2022-11-20T03:57:41;0.82;;;0.30;;
65073;SDS011;52218;51.224;-2.328;2022-11-20T04:01:26;0.98;;;0.30;;
65073;SDS011;52218;51.224;-2.328;2022-11-20T04:05:10;1.15;;;0.32;;
65073;SDS011;52218;51.224;-2.328;2022-11-20T04:08:58;0.82;;;0.40;;
65073;SDS011;52218;51.224;-2.328;2022-11-20T04:12:40;0.80;;;0.30;;
65073;SDS011;52218;51.224;-2.328;2022-11-20T04:16:23;0.40;;;0.30;;
65073;SDS011;52218;51.224;-2.328;2022-11-20T04:20:06;0.55;;;0.30;;
65073;SDS011;52218;51.224;-2.328;2022-11-20T04:23:48;0.20;;;0.20;;
65073;SDS011;52218;51.224;-2.328;2022-11-20T04:27:31;0.98;;;0.38;;
65073;SDS011;52218;51.224;-2.328;2022-11-20T04:31:15;0.40;;;0.20;;
65073;SDS011;52218;51.224;-2.328;2022-11-20T04:34:59;0.30;;;0.20;;
65073;SDS011;52218;51.224;-2.328;2022-11-20T04:38:41;0.50;;;0.30;;
65073;SDS011;52218;51.224;-2.328;2022-11-20T04:42:23;0.68;;;0.30;;
65073;SDS011;52218;51.224;-2.328;2022-11-20T04:46:12;0.50;;;0.30;;
65073;SDS011;52218;51.224;-2.328;2022-11-20T04:49:53;0.40;;;0.30;;
65073;SDS011;52218;51.224;-2.328;2022-11-20T04:53:36;0.77;;;0.30;;
65073;SDS011;52218;51.224;-2.328;2022-11-20T04:57:18;0.30;;;0.30;;
65073;SDS011;52218;51.224;-2.328;2022-11-20T05:01:11;1.58;;;0.30;;
65073;SDS011;52218;51.224;-2.328;2022-11-20T05:04:53;0.88;;;0.40;;
65073;SDS011;52218;51.224;-2.328;2022-11-20T05:08:35;1.00;;;0.35;;
65073;SDS011;52218;51.224;-2.328;2022-11-20T05:12:17;1.33;;;0.52;;
65073;SDS011;52218;51.224;-2.328;2022-11-20T05:16:06;3.10;;;0.50;;
65073;SDS011;52218;51.224;-2.328;2022-11-20T05:19:50;6.57;;;0.82;;
65073;SDS011;52218;51.224;-2.328;2022-11-20T05:23:33;4.00;;;0.73;;
65073;SDS011;52218;51.224;-2.328;2022-11-20T05:27:15;6.78;;;1.00;;
65073;SDS011;52218;51.224;-2.328;2022-11-20T05:31:07;4.82;;;1.00;;
65073;SDS011;52218;51.224;-2.328;2022-11-20T05:34:53;4.60;;;0.80;;
65073;SDS011;52218;51.224;-2.328;2022-11-20T05:38:35;5.82;;;1.40;;
65073;SDS011;52218;51.224;-2.328;2022-11-20T05:42:17;5.40;;;1.23;;
65073;SDS011;52218;51.224;-2.328;2022-11-20T05:46:14;8.63;;;1.45;;
65073;SDS011;52218;51.224;-2.328;2022-11-20T05:50:00;6.97;;;1.27;;
65073;SDS011;52218;51.224;-2.328;2022-11-20T05:53:43;6.63;;;1.67;;
65073;SDS011;52218;51.224;-2.328;2022-11-20T05:57:29;7.72;;;1.48;;
65073;SDS011;52218;51.224;-2.328;2022-11-20T06:01:18;7.40;;;1.60;;
65073;SDS011;52218;51.224;-2.328;2022-11-20T06:05:04;8.18;;;1.45;;
65073;SDS011;52218;51.224;-2.328;2022-11-20T06:08:47;10.65;;;1.92;;
65073;SDS011;52218;51.224;-2.328;2022-11-20T06:12:31;13.32;;;2.00;;
65073;SDS011;52218;51.224;-2.328;2022-11-20T06:16:14;8.85;;;1.73;;
65073;SDS011;52218;51.224;-2.328;2022-11-20T06:19:58;9.05;;;1.92;;
65073;SDS011;52218;51.224;-2.328;2022-11-20T06:23:40;11.77;;;1.88;;
65073;SDS011;52218;51.224;-2.328;2022-11-20T06:27:22;6.65;;;1.40;;
65073;SDS011;52218;51.224;-2.328;2022-11-20T06:31:05;14.98;;;2.50;;
65073;SDS011;52218;51.224;-2.328;2022-11-20T06:34:47;13.65;;;2.30;;
65073;SDS011;52218;51.224;-2.328;2022-11-20T06:38:29;12.20;;;2.30;;
65073;SDS011;52218;51.224;-2.328;2022-11-20T06:42:11;13.32;;;2.25;;
65073;SDS011;52218;51.224;-2.328;2022-11-20T06:45:57;11.68;;;2.03;;
65073;SDS011;52218;51.224;-2.328;2022-11-20T06:49:40;12.88;;;3.13;;
65073;SDS011;52218;51.224;-2.328;2022-11-20T06:53:22;9.98;;;1.98;;
65073;SDS011;52218;51.224;-2.328;2022-11-20T06:57:05;10.30;;;2.10;;
65073;SDS011;52218;51.224;-2.328;2022-11-20T07:00:47;9.50;;;1.98;;
65073;SDS011;52218;51.224;-2.328;2022-11-20T07:04:29;10.10;;;1.90;;
65073;SDS011;52218;51.224;-2.328;2022-11-20T07:08:11;11.10;;;2.15;;
65073;SDS011;52218;51.224;-2.328;2022-11-20T07:11:53;12.85;;;1.98;;
65073;SDS011;52218;51.224;-2.328;2022-11-20T07:15:35;8.07;;;1.70;;
65073;SDS011;52218;51.224;-2.328;2022-11-20T07:19:17;11.75;;;2.03;;
65073;SDS011;52218;51.224;-2.328;2022-11-20T07:22:59;10.30;;;1.65;;
65073;SDS011;52218;51.224;-2.328;2022-11-20T07:26:41;8.05;;;1.80;;
65073;SDS011;52218;51.224;-2.328;2022-11-20T07:30:23;10.02;;;1.75;;
65073;SDS011;52218;51.224;-2.328;2022-11-20T07:34:06;6.72;;;1.50;;
65073;SDS011;52218;51.224;-2.328;2022-11-20T07:37:48;15.95;;;2.35;;
65073;SDS011;52218;51.224;-2.328;2022-11-20T07:41:30;9.23;;;2.08;;
65073;SDS011;52218;51.224;-2.328;2022-11-20T07:45:12;9.70;;;1.63;;
65073;SDS011;52218;51.224;-2.328;2022-11-20T07:48:54;12.93;;;2.08;;
65073;SDS011;52218;51.224;-2.328;2022-11-20T07:52:36;13.18;;;2.08;;
65073;SDS011;52218;51.224;-2.328;2022-11-20T07:56:18;13.27;;;2.92;;
65073;SDS011;52218;51.224;-2.328;2022-11-20T08:00:00;12.02;;;1.73;;
65073;SDS011;52218;51.224;-2.328;2022-11-20T08:03:42;10.50;;;2.00;;
65073;SDS011;52218;51.224;-2.328;2022-11-20T08:07:24;9.70;;;2.00;;
65073;SDS011;52218;51.224;-2.328;2022-11-20T08:11:06;10.50;;;2.75;;
65073;SDS011;52218;51.224;-2.328;2022-11-20T08:15:06;15.30;;;2.38;;
65073;SDS011;52218;51.224;-2.328;2022-11-20T08:22:35;11.35;;;2.05;;
65073;SDS011;52218;51.224;-2.328;2022-11-20T08:26:17;13.10;;;2.88;;
65073;SDS011;52218;51.224;-2.328;2022-11-20T08:29:59;16.83;;;2.88;;
65073;SDS011;52218;51.224;-2.328;2022-11-20T08:33:41;18.92;;;2.90;;
65073;SDS011;52218;51.224;-2.328;2022-11-20T08:37:23;20.25;;;3.10;;
65073;SDS011;52218;51.224;-2.328;2022-11-20T08:41:05;20.55;;;2.85;;
65073;SDS011;52218;51.224;-2.328;2022-11-20T08:45:06;14.55;;;2.72;;
65073;SDS011;52218;51.224;-2.328;2022-11-20T08:48:49;18.73;;;3.25;;
65073;SDS011;52218;51.224;-2.328;2022-11-20T08:52:31;12.70;;;2.50;;
65073;SDS011;52218;51.224;-2.328;2022-11-20T08:56:19;19.20;;;3.38;;
65073;SDS011;52218;51.224;-2.328;2022-11-20T09:00:03;14.45;;;3.00;;
65073;SDS011;52218;51.224;-2.328;2022-11-20T09:03:47;13.35;;;2.95;;
65073;SDS011;52218;51.224;-2.328;2022-11-20T09:07:29;13.80;;;3.10;;
65073;SDS011;52218;51.224;-2.328;2022-11-20T09:11:11;14.05;;;2.42;;
65073;SDS011;52218;51.224;-2.328;2022-11-20T09:14:53;12.02;;;3.05;;
65073;SDS011;52218;51.224;-2.328;2022-11-20T09:18:35;14.98;;;2.90;;
65073;SDS011;52218;51.224;-2.328;2022-11-20T09:22:18;16.88;;;2.45;;
65073;SDS011;52218;51.224;-2.328;2022-11-20T09:26:04;16.10;;;2.90;;
65073;SDS011;52218;51.224;-2.328;2022-11-20T09:29:47;12.07;;;2.67;;
65073;SDS011;52218;51.224;-2.328;2022-11-20T09:33:29;11.38;;;2.50;;
65073;SDS011;52218;51.224;-2.328;2022-11-20T09:37:11;13.63;;;2.83;;
65073;SDS011;52218;51.224;-2.328;2022-11-20T09:40:57;12.07;;;3.35;;
65073;SDS011;52218;51.224;-2.328;2022-11-20T09:56:17;12.73;;;2.42;;
65073;SDS011;52218;51.224;-2.328;2022-11-20T10:00:04;13.77;;;2.72;;
65073;SDS011;52218;51.224;-2.328;2022-11-20T10:08:02;11.07;;;2.58;;
65073;SDS011;52218;51.224;-2.328;2022-11-20T10:32:51;9.98;;;2.10;;
65073;SDS011;52218;51.224;-2.328;2022-11-20T10:36:38;9.75;;;2.00;;
65073;SDS011;52218;51.224;-2.328;2022-11-20T10:40:41;9.75;;;2.20;;
65073;SDS011;52218;51.224;-2.328;2022-11-20T10:44:28;14.68;;;2.58;;
65073;SDS011;52218;51.224;-2.328;2022-11-20T10:48:35;11.70;;;2.38;;
65073;SDS011;52218;51.224;-2.328;2022-11-20T11:00:07;9.63;;;2.58;;
65073;SDS011;52218;51.224;-2.328;2022-11-20T11:03:52;9.93;;;2.30;;
65073;SDS011;52218;51.224;-2.328;2022-11-20T11:07:39;10.30;;;2.63;;
65073;SDS011;52218;51.224;-2.328;2022-11-20T11:11:23;10.98;;;2.65;;
65073;SDS011;52218;51.224;-2.328;2022-11-20T11:15:28;7.25;;;2.10;;
65073;SDS011;52218;51.224;-2.328;2022-11-20T11:19:18;8.02;;;2.53;;
65073;SDS011;52218;51.224;-2.328;2022-11-20T11:23:00;9.63;;;2.28;;
65073;SDS011;52218;51.224;-2.328;2022-11-20T11:26:50;8.73;;;2.28;;
65073;SDS011;52218;51.224;-2.328;2022-11-20T11:30:43;8.63;;;2.17;;
65073;SDS011;52218;51.224;-2.328;2022-11-20T11:34:26;7.72;;;1.92;;
65073;SDS011;52218;51.224;-2.328;2022-11-20T11:38:11;6.35;;;1.75;;
65073;SDS011;52218;51.224;-2.328;2022-11-20T11:41:57;8.15;;;1.73;;
65073;SDS011;52218;51.224;-2.328;2022-11-20T11:45:39;12.00;;;2.47;;
65073;SDS011;52218;51.224;-2.328;2022-11-20T11:49:34;8.40;;;1.95;;
65073;SDS011;52218;51.224;-2.328;2022-11-20T11:53:19;10.65;;;2.13;;
65073;SDS011;52218;51.224;-2.328;2022-11-20T11:57:05;10.13;;;2.08;;
65073;SDS011;52218;51.224;-2.328;2022-11-20T12:00:54;10.15;;;2.55;;
65073;SDS011;52218;51.224;-2.328;2022-11-20T12:04:43;8.85;;;2.25;;
65073;SDS011;52218;51.224;-2.328;2022-11-20T12:08:53;9.90;;;2.28;;
65073;SDS011;52218;51.224;-2.328;2022-11-20T12:12:35;7.85;;;2.03;;
65073;SDS011;52218;51.224;-2.328;2022-11-20T12:16:24;8.65;;;2.08;;
65073;SDS011;52218;51.224;-2.328;2022-11-20T12:20:13;10.00;;;2.40;;
65073;SDS011;52218;51.224;-2.328;2022-11-20T12:39:43;6.78;;;1.83;;
65073;SDS011;52218;51.224;-2.328;2022-11-20T12:43:31;11.18;;;2.38;;
65073;SDS011;52218;51.224;-2.328;2022-11-20T12:48:00;8.95;;;1.73;;
65073;SDS011;52218;51.224;-2.328;2022-11-20T13:03:49;7.07;;;1.48;;
65073;SDS011;52218;51.224;-2.328;2022-11-20T13:07:38;6.82;;;1.58;;
65073;SDS011;52218;51.224;-2.328;2022-11-20T13:11:34;5.13;;;1.38;;
65073;SDS011;52218;51.224;-2.328;2022-11-20T13:19:23;6.63;;;1.30;;
65073;SDS011;52218;51.224;-2.328;2022-11-20T13:23:06;6.05;;;1.50;;
65073;SDS011;52218;51.224;-2.328;2022-11-20T13:26:59;4.72;;;1.30;;
65073;SDS011;52218;51.224;-2.328;2022-11-20T13:30:50;3.47;;;1.25;;
65073;SDS011;52218;51.224;-2.328;2022-11-20T13:34:34;3.88;;;0.75;;
65073;SDS011;52218;51.224;-2.328;2022-11-20T13:38:17;3.05;;;0.60;;
65073;SDS011;52218;51.224;-2.328;2022-11-20T13:42:03;2.15;;;0.60;;
65073;SDS011;52218;51.224;-2.328;2022-11-20T13:46:09;2.50;;;0.50;;
65073;SDS011;52218;51.224;-2.328;2022-11-20T13:49:52;1.42;;;0.50;;
65073;SDS011;52218;51.224;-2.328;2022-11-20T14:01:45;2.58;;;0.47;;
65073;SDS011;52218;51.224;-2.328;2022-11-20T14:05:27;1.88;;;0.40;;
65073;SDS011;52218;51.224;-2.328;2022-11-20T14:09:23;1.33;;;0.43;;
65073;SDS011;52218;51.224;-2.328;2022-11-20T14:13:12;3.83;;;0.73;;
65073;SDS011;52218;51.224;-2.328;2022-11-20T14:17:06;2.67;;;0.60;;
65073;SDS011;52218;51.224;-2.328;2022-11-20T14:20:50;2.30;;;0.77;;
65073;SDS011;52218;51.224;-2.328;2022-11-20T14:24:32;2.10;;;0.40;;
65073;SDS011;52218;51.224;-2.328;2022-11-20T14:28:24;2.78;;;0.70;;
65073;SDS011;52218;51.224;-2.328;2022-11-20T14:32:08;2.53;;;0.70;;
65073;SDS011;52218;51.224;-2.328;2022-11-20T14:35:52;4.13;;;0.70;;
65073;SDS011;52218;51.224;-2.328;2022-11-20T14:39:42;2.63;;;0.70;;
65073;SDS011;52218;51.224;-2.328;2022-11-20T14:43:29;1.70;;;0.43;;
65073;SDS011;52218;51.224;-2.328;2022-11-20T14:47:16;3.53;;;0.63;;
65073;SDS011;52218;51.224;-2.328;2022-11-20T14:51:11;3.75;;;0.80;;
65073;SDS011;52218;51.224;-2.328;2022-11-20T14:55:04;4.40;;;0.98;;
65073;SDS011;52218;51.224;-2.328;2022-11-20T14:58:54;3.60;;;1.10;;
65073;SDS011;52218;51.224;-2.328;2022-11-20T15:02:41;4.85;;;1.00;;
65073;SDS011;52218;51.224;-2.328;2022-11-20T15:06:25;5.57;;;1.50;;
65073;SDS011;52218;51.224;-2.328;2022-11-20T15:10:09;6.68;;;1.33;;
65073;SDS011;52218;51.224;-2.328;2022-11-20T15:13:53;7.70;;;1.20;;
65073;SDS011;52218;51.224;-2.328;2022-11-20T15:17:35;7.40;;;1.23;;
65073;SDS011;52218;51.224;-2.328;2022-11-20T15:21:19;6.85;;;1.77;;
65073;SDS011;52218;51.224;-2.328;2022-11-20T15:25:11;4.80;;;1.00;;
65073;SDS011;52218;51.224;-2.328;2022-11-20T15:28:56;7.47;;;1.23;;
65073;SDS011;52218;51.224;-2.328;2022-11-20T15:32:38;7.10;;;1.00;;
65073;SDS011;52218;51.224;-2.328;2022-11-20T15:36:20;6.38;;;1.20;;
65073;SDS011;52218;51.224;-2.328;2022-11-20T15:40:03;6.13;;;1.40;;
65073;SDS011;52218;51.224;-2.328;2022-11-20T15:43:45;3.08;;;0.80;;
65073;SDS011;52218;51.224;-2.328;2022-11-20T15:47:29;4.65;;;1.02;;
65073;SDS011;52218;51.224;-2.328;2022-11-20T15:55:10;7.38;;;1.80;;
65073;SDS011;52218;51.224;-2.328;2022-11-20T15:58:52;5.35;;;1.15;;
65073;SDS011;52218;51.224;-2.328;2022-11-20T16:02:34;5.93;;;1.17;;
65073;SDS011;52218;51.224;-2.328;2022-11-20T16:06:16;3.88;;;1.10;;
65073;SDS011;52218;51.224;-2.328;2022-11-20T16:09:59;5.40;;;1.33;;
65073;SDS011;52218;51.224;-2.328;2022-11-20T16:13:41;6.05;;;1.08;;
65073;SDS011;52218;51.224;-2.328;2022-11-20T16:17:42;7.20;;;1.73;;
65073;SDS011;52218;51.224;-2.328;2022-11-20T16:21:24;4.50;;;1.50;;
65073;SDS011;52218;51.224;-2.328;2022-11-20T16:25:12;6.72;;;1.63;;
65073;SDS011;52218;51.224;-2.328;2022-11-20T16:28:54;6.22;;;1.73;;
65073;SDS011;52218;51.224;-2.328;2022-11-20T16:32:37;5.22;;;1.10;;
65073;SDS011;52218;51.224;-2.328;2022-11-20T16:36:21;4.82;;;1.10;;
65073;SDS011;52218;51.224;-2.328;2022-11-20T16:40:04;5.82;;;1.35;;
65073;SDS011;52218;51.224;-2.328;2022-11-20T16:43:48;5.68;;;1.10;;
65073;SDS011;52218;51.224;-2.328;2022-11-20T16:47:32;4.38;;;0.93;;
65073;SDS011;52218;51.224;-2.328;2022-11-20T16:51:15;7.80;;;1.65;;
65073;SDS011;52218;51.224;-2.328;2022-11-20T16:54:57;6.18;;;1.30;;
65073;SDS011;52218;51.224;-2.328;2022-11-20T16:58:40;5.93;;;1.50;;
65073;SDS011;52218;51.224;-2.328;2022-11-20T17:02:22;4.85;;;1.33;;
65073;SDS011;52218;51.224;-2.328;2022-11-20T17:06:39;6.50;;;1.48;;
65073;SDS011;52218;51.224;-2.328;2022-11-20T17:10:16;2.90;;;1.20;;
65073;SDS011;52218;51.224;-2.328;2022-11-20T17:13:58;6.72;;;1.52;;
65073;SDS011;52218;51.224;-2.328;2022-11-20T17:17:44;8.00;;;1.80;;
65073;SDS011;52218;51.224;-2.328;2022-11-20T17:21:26;8.60;;;2.10;;
65073;SDS011;52218;51.224;-2.328;2022-11-20T17:25:09;5.50;;;1.88;;
65073;SDS011;52218;51.224;-2.328;2022-11-20T17:28:55;9.32;;;1.95;;
65073;SDS011;52218;51.224;-2.328;2022-11-20T17:32:40;9.25;;;2.10;;
65073;SDS011;52218;51.224;-2.328;2022-11-20T17:36:26;6.73;;;2.00;;
65073;SDS011;52218;51.224;-2.328;2022-11-20T17:40:08;10.25;;;3.40;;
65073;SDS011;52218;51.224;-2.328;2022-11-20T17:43:57;19.30;;;7.80;;
65073;SDS011;52218;51.224;-2.328;2022-11-20T17:47:40;17.90;;;8.43;;
65073;SDS011;52218;51.224;-2.328;2022-11-20T17:51:25;15.52;;;9.77;;
65073;SDS011;52218;51.224;-2.328;2022-11-20T17:55:09;14.55;;;7.85;;
65073;SDS011;52218;51.224;-2.328;2022-11-20T17:58:51;16.58;;;10.35;;
65073;SDS011;52218;51.224;-2.328;2022-11-20T18:02:33;12.32;;;7.43;;
65073;SDS011;52218;51.224;-2.328;2022-11-20T18:06:16;16.30;;;10.23;;
65073;SDS011;52218;51.224;-2.328;2022-11-20T18:10:00;15.50;;;8.93;;
65073;SDS011;52218;51.224;-2.328;2022-11-20T18:13:43;20.10;;;10.38;;
65073;SDS011;52218;51.224;-2.328;2022-11-20T18:17:44;15.27;;;9.27;;
65073;SDS011;52218;51.224;-2.328;2022-11-20T18:21:28;18.98;;;11.65;;
65073;SDS011;52218;51.224;-2.328;2022-11-20T18:25:10;15.98;;;9.65;;
65073;SDS011;52218;51.224;-2.328;2022-11-20T18:28:52;15.82;;;9.57;;
65073;SDS011;52218;51.224;-2.328;2022-11-20T18:32:35;15.57;;;9.77;;
65073;SDS011;52218;51.224;-2.328;2022-11-20T18:36:18;14.27;;;9.52;;
65073;SDS011;52218;51.224;-2.328;2022-11-20T18:40:04;15.95;;;9.88;;
65073;SDS011;52218;51.224;-2.328;2022-11-20T18:43:47;17.25;;;10.52;;
65073;SDS011;52218;51.224;-2.328;2022-11-20T18:47:50;17.95;;;10.07;;
65073;SDS011;52218;51.224;-2.328;2022-11-20T18:51:32;15.75;;;8.10;;
65073;SDS011;52218;51.224;-2.328;2022-11-20T18:55:14;11.57;;;6.25;;
65073;SDS011;52218;51.224;-2.328;2022-11-20T18:58:58;12.52;;;6.28;;
65073;SDS011;52218;51.224;-2.328;2022-11-20T19:02:41;15.32;;;7.72;;
65073;SDS011;52218;51.224;-2.328;2022-11-20T19:06:24;13.60;;;7.10;;
65073;SDS011;52218;51.224;-2.328;2022-11-20T19:10:07;10.57;;;6.03;;
65073;SDS011;52218;51.224;-2.328;2022-11-20T19:13:50;11.55;;;6.13;;
65073;SDS011;52218;51.224;-2.328;2022-11-20T19:17:32;9.73;;;6.13;;
65073;SDS011;52218;51.224;-2.328;2022-11-20T19:21:15;12.88;;;7.60;;
65073;SDS011;52218;51.224;-2.328;2022-11-20T19:24:59;14.13;;;6.82;;
65073;SDS011;52218;51.224;-2.328;2022-11-20T19:28:42;13.30;;;7.80;;
65073;SDS011;52218;51.224;-2.328;2022-11-20T19:32:24;13.27;;;7.13;;
65073;SDS011;52218;51.224;-2.328;2022-11-20T19:39:53;16.58;;;7.00;;
65073;SDS011;52218;51.224;-2.328;2022-11-20T19:43:39;10.40;;;5.93;;
65073;SDS011;52218;51.224;-2.328;2022-11-20T19:47:21;9.98;;;5.57;;
65073;SDS011;52218;51.224;-2.328;2022-11-20T19:51:27;8.20;;;3.15;;
65073;SDS011;52218;51.224;-2.328;2022-11-20T19:55:10;8.75;;;3.42;;
65073;SDS011;52218;51.224;-2.328;2022-11-20T19:58:54;9.13;;;3.25;;
65073;SDS011;52218;51.224;-2.328;2022-11-20T20:02:37;10.20;;;3.85;;
65073;SDS011;52218;51.224;-2.328;2022-11-20T20:06:20;7.68;;;3.17;;
65073;SDS011;52218;51.224;-2.328;2022-11-20T20:10:04;9.23;;;2.70;;
65073;SDS011;52218;51.224;-2.328;2022-11-20T20:13:47;9.23;;;2.50;;
65073;SDS011;52218;51.224;-2.328;2022-11-20T20:17:29;5.15;;;2.05;;
65073;SDS011;52218;51.224;-2.328;2022-11-20T20:21:12;6.18;;;1.85;;
65073;SDS011;52218;51.224;-2.328;2022-11-20T20:24:55;10.50;;;2.20;;
65073;SDS011;52218;51.224;-2.328;2022-11-20T20:28:37;12.23;;;2.78;;
65073;SDS011;52218;51.224;-2.328;2022-11-20T20:32:20;12.93;;;3.40;;
65073;SDS011;52218;51.224;-2.328;2022-11-20T20:36:05;5.25;;;1.60;;
65073;SDS011;52218;51.224;-2.328;2022-11-20T20:39:48;8.13;;;2.00;;
65073;SDS011;52218;51.224;-2.328;2022-11-20T20:43:31;7.53;;;2.10;;
65073;SDS011;52218;51.224;-2.328;2022-11-20T20:47:33;9.63;;;2.38;;
65073;SDS011;52218;51.224;-2.328;2022-11-20T20:51:17;8.20;;;2.33;;
65073;SDS011;52218;51.224;-2.328;2022-11-20T20:54:59;8.23;;;3.30;;
65073;SDS011;52218;51.224;-2.328;2022-11-20T20:58:41;13.43;;;3.40;;
65073;SDS011;52218;51.224;-2.328;2022-11-20T21:02:23;9.90;;;2.90;;
65073;SDS011;52218;51.224;-2.328;2022-11-20T21:06:06;10.23;;;3.22;;
65073;SDS011;52218;51.224;-2.328;2022-11-20T21:09:50;10.73;;;2.92;;
65073;SDS011;52218;51.224;-2.328;2022-11-20T21:13:32;15.10;;;4.65;;
65073;SDS011;52218;51.224;-2.328;2022-11-20T21:17:16;12.20;;;5.55;;
65073;SDS011;52218;51.224;-2.328;2022-11-20T21:20:58;8.98;;;3.72;;
65073;SDS011;52218;51.224;-2.328;2022-11-20T21:24:59;10.32;;;3.85;;
65073;SDS011;52218;51.224;-2.328;2022-11-20T21:28:42;22.65;;;4.30;;
65073;SDS011;52218;51.224;-2.328;2022-11-20T21:32:24;8.88;;;3.08;;
65073;SDS011;52218;51.224;-2.328;2022-11-20T21:36:07;11.32;;;3.17;;
65073;SDS011;52218;51.224;-2.328;2022-11-20T21:39:50;7.40;;;2.35;;
65073;SDS011;52218;51.224;-2.328;2022-11-20T21:43:32;8.52;;;2.22;;
65073;SDS011;52218;51.224;-2.328;2022-11-20T21:47:15;12.48;;;2.20;;
65073;SDS011;52218;51.224;-2.328;2022-11-20T21:51:07;8.65;;;2.13;;
65073;SDS011;52218;51.224;-2.328;2022-11-20T21:54:51;9.90;;;2.00;;
65073;SDS011;52218;51.224;-2.328;2022-11-20T21:58:36;6.40;;;2.40;;
65073;SDS011;52218;51.224;-2.328;2022-11-20T22:02:20;8.35;;;2.25;;
65073;SDS011;52218;51.224;-2.328;2022-11-20T22:06:02;7.28;;;2.40;;
65073;SDS011;52218;51.224;-2.328;2022-11-20T22:09:45;14.40;;;2.80;;
65073;SDS011;52218;51.224;-2.328;2022-11-20T22:13:27;11.98;;;2.97;;
65073;SDS011;52218;51.224;-2.328;2022-11-20T22:17:28;11.50;;;3.00;;
65073;SDS011;52218;51.224;-2.328;2022-11-20T22:21:28;6.53;;;2.65;;
65073;SDS011;52218;51.224;-2.328;2022-11-20T22:25:12;9.55;;;2.92;;
65073;SDS011;52218;51.224;-2.328;2022-11-20T22:28:54;7.68;;;2.28;;
65073;SDS011;52218;51.224;-2.328;2022-11-20T22:32:38;9.77;;;2.38;;
65073;SDS011;52218;51.224;-2.328;2022-11-20T22:36:22;7.25;;;2.30;;
65073;SDS011;52218;51.224;-2.328;2022-11-20T22:40:08;7.72;;;2.30;;
65073;SDS011;52218;51.224;-2.328;2022-11-20T22:43:57;10.38;;;2.55;;
65073;SDS011;52218;51.224;-2.328;2022-11-20T22:47:40;7.63;;;2.00;;
65073;SDS011;52218;51.224;-2.328;2022-11-20T22:51:23;9.25;;;2.60;;
65073;SDS011;52218;51.224;-2.328;2022-11-20T22:55:06;9.30;;;2.47;;
65073;SDS011;52218;51.224;-2.328;2022-11-20T22:58:56;7.93;;;2.60;;
65073;SDS011;52218;51.224;-2.328;2022-11-20T23:02:42;8.32;;;2.15;;
65073;SDS011;52218;51.224;-2.328;2022-11-20T23:06:25;7.97;;;2.58;;
65073;SDS011;52218;51.224;-2.328;2022-11-20T23:10:08;8.68;;;3.03;;
65073;SDS011;52218;51.224;-2.328;2022-11-20T23:13:59;11.70;;;3.63;;
65073;SDS011;52218;51.224;-2.328;2022-11-20T23:17:42;8.48;;;2.80;;
65073;SDS011;52218;51.224;-2.328;2022-11-20T23:21:25;8.60;;;2.92;;
65073;SDS011;52218;51.224;-2.328;2022-11-20T23:25:07;9.13;;;2.80;;
65073;SDS011;52218;51.224;-2.328;2022-11-20T23:28:51;9.65;;;2.28;;
65073;SDS011;52218;51.224;-2.328;2022-11-20T23:32:34;8.93;;;2.42;;
65073;SDS011;52218;51.224;-2.328;2022-11-20T23:36:16;13.38;;;2.45;;
65073;SDS011;52218;51.224;-2.328;2022-11-20T23:39:59;14.25;;;2.65;;
65073;SDS011;52218;51.224;-2.328;2022-11-20T23:43:41;7.95;;;2.15;;
65073;SDS011;52218;51.224;-2.328;2022-11-20T23:47:23;10.98;;;2.70;;